Time;durP1;ratioP1;P1;durP2;ratioP2;P2;SDS_P1;SDS_P2;PMS_P1;PMS_P2;Temp;Humidity;BMP_temperature;BMP_pressure;BME280_temperature;BME280_humidity;BME280_pressure;Samples;Min_cycle;Max_cycle;Signal;HPM_P1;HPM_P2
2020/07/10 00:00:45;;;;;;;6.4;1.7;;;;;;;18.45;70.46875;938.0375;;;;
2020/07/10 00:03:09;;;;;;;4.7;1.7;;;;;;;18.43;70.87207;938.0389;;;;
2020/07/10 00:05:36;;;;;;;4.7;1.6;;;;;;;18.55;70.21875;938.0773;;;;
2020/07/10 00:08:02;;;;;;;5.4;1.4;;;;;;;18.6;69.98145;938.0447;;;;
2020/07/10 00:10:28;;;;;;;7.6;1.6;;;;;;;18.62;69.79883;938.0923;;;;
2020/07/10 00:12:54;;;;;;;10.4;1.9;;;;;;;18.55;69.99609;938.0314;;;;
2020/07/10 00:15:19;;;;;;;6.7;1.8;;;;;;;18.39;70.7959;938.0506;;;;
2020/07/10 00:17:45;;;;;;;8.3;2.3;;;;;;;18.48;70.22949;938.0233;;;;
2020/07/10 00:20:11;;;;;;;7;1.7;;;;;;;18.52;69.93262;937.9328;;;;
2020/07/10 00:22:38;;;;;;;4.8;1.8;;;;;;;18.34;70.46191;938.0066;;;;
2020/07/10 00:25:04;;;;;;;6.2;1.9;;;;;;;18.25;70.97168;937.9778;;;;
2020/07/10 00:27:29;;;;;;;7.5;1.8;;;;;;;18.26;71.00781;937.9929;;;;
2020/07/10 00:29:54;;;;;;;5.7;1.6;;;;;;;18.27;71.1709;938.0056;;;;
2020/07/10 00:32:19;;;;;;;4.9;1.5;;;;;;;18.29;70.89648;937.9947;;;;
2020/07/10 00:34:45;;;;;;;5.3;1.6;;;;;;;18.22;71.00195;937.9098;;;;
2020/07/10 00:37:10;;;;;;;4.9;1.7;;;;;;;17.96;71.88965;937.8959;;;;
2020/07/10 00:39:48;;;;;;;3.9;1.5;;;;;;;17.79;72.5;937.9417;;;;
2020/07/10 00:42:01;;;;;;;5.8;1.6;;;;;;;17.6;73.26758;937.8817;;;;
2020/07/10 00:44:27;;;;;;;4;1.6;;;;;;;17.76;72.95801;937.8431;;;;
2020/07/10 00:47:19;;;;;;;6.3;1.7;;;;;;;17.87;72.05859;937.8688;;;;
2020/07/10 00:49:41;;;;;;;4.6;1.6;;;;;;;17.71;72.5791;937.9045;;;;
2020/07/10 00:52:07;;;;;;;5;1.6;;;;;;;17.54;73.33984;937.8925;;;;
2020/07/10 00:54:09;;;;;;;3.7;1.5;;;;;;;17.58;73.12695;937.8499;;;;
2020/07/10 00:56:34;;;;;;;4.6;1.6;;;;;;;17.52;73.61328;937.822;;;;
2020/07/10 00:58:59;;;;;;;5.1;1.9;;;;;;;17.67;73.46582;937.9024;;;;
2020/07/10 01:01:26;;;;;;;5.2;1.9;;;;;;;17.62;73.09766;937.8406;;;;
2020/07/10 01:04:27;;;;;;;4.9;1.6;;;;;;;17.57;73.35547;937.8814;;;;
2020/07/10 01:06:52;;;;;;;4.3;1.5;;;;;;;17.55;73.42285;937.7699;;;;
2020/07/10 01:09:37;;;;;;;5.4;1.9;;;;;;;17.64;73.05469;937.7645;;;;
2020/07/10 01:12:02;;;;;;;3.7;1.5;;;;;;;17.65;72.76563;937.6887;;;;
2020/07/10 01:14:30;;;;;;;3.3;1.4;;;;;;;17.58;73.05566;937.7081;;;;
2020/07/10 01:16:55;;;;;;;3.2;1.5;;;;;;;17.5;73.43848;937.7442;;;;
2020/07/10 01:19:20;;;;;;;2.8;1.4;;;;;;;17.51;73.4502;937.6813;;;;
2020/07/10 01:21:45;;;;;;;5.9;1.3;;;;;;;17.56;73.06543;937.6699;;;;
2020/07/10 01:24:11;;;;;;;3.9;1.4;;;;;;;17.45;73.33594;937.7025;;;;
2020/07/10 01:26:35;;;;;;;4.4;1.4;;;;;;;17.28;74.14258;937.6794;;;;
2020/07/10 01:29:02;;;;;;;5.2;1.4;;;;;;;17.17;74.54199;937.6714;;;;
2020/07/10 01:31:27;;;;;;;4.6;1.6;;;;;;;17.28;73.98047;937.6561;;;;
2020/07/10 01:33:53;;;;;;;6.5;1.7;;;;;;;17.29;73.88867;937.6398;;;;
2020/07/10 01:36:18;;;;;;;3.6;1.4;;;;;;;17.18;74.06738;937.6486;;;;
2020/07/10 01:38:43;;;;;;;5;1.4;;;;;;;17.17;73.77637;937.6431;;;;
2020/07/10 01:41:54;;;;;;;4.5;1.4;;;;;;;17.11;73.73145;937.5839;;;;
2020/07/10 01:43:33;;;;;;;3.6;1.5;;;;;;;17.07;73.67871;937.5564;;;;
2020/07/10 01:45:58;;;;;;;3.9;1.2;;;;;;;17.14;73.69043;937.6042;;;;
2020/07/10 01:48:23;;;;;;;4.8;1.2;;;;;;;17.1;73.56738;937.5245;;;;
2020/07/10 01:50:50;;;;;;;4.6;1.6;;;;;;;16.95;74.30762;937.4767;;;;
2020/07/10 01:53:16;;;;;;;3.4;1.6;;;;;;;16.99;74.28906;937.5864;;;;
2020/07/10 01:55:41;;;;;;;5;1.4;;;;;;;16.98;74.41699;937.5745;;;;
2020/07/10 01:58:07;;;;;;;3.1;1.6;;;;;;;17.04;74.30957;937.5392;;;;
2020/07/10 02:00:31;;;;;;;6.6;1.4;;;;;;;17.06;74.19824;937.5758;;;;
2020/07/10 02:02:58;;;;;;;8.7;1.9;;;;;;;17.07;74.14258;937.5708;;;;
2020/07/10 02:05:24;;;;;;;4.6;1.5;;;;;;;16.92;74.61621;937.5103;;;;
2020/07/10 02:07:49;;;;;;;3.3;1.4;;;;;;;16.79;75.0459;937.5522;;;;
2020/07/10 02:12:42;;;;;;;7.7;1.8;;;;;;;16.51;75.88867;937.4778;;;;
2020/07/10 02:15:08;;;;;;;4.8;1.4;;;;;;;16.58;75.73828;937.488;;;;
2020/07/10 02:17:33;;;;;;;4.5;1.6;;;;;;;16.7;75.00586;937.4458;;;;
2020/07/10 02:19:58;;;;;;;4.3;1.5;;;;;;;16.56;75.16797;937.502;;;;
2020/07/10 02:22:31;;;;;;;6.4;1.6;;;;;;;16.61;75.17578;937.445;;;;
2020/07/10 02:25:43;;;;;;;7.1;1.5;;;;;;;16.63;75.04004;937.519;;;;
2020/07/10 02:28:59;;;;;;;4.8;1.3;;;;;;;16.47;75.13965;937.4439;;;;
2020/07/10 02:32:10;;;;;;;5.9;1.4;;;;;;;16.42;75.52539;937.4244;;;;
2020/07/10 02:35:20;;;;;;;3.2;1.4;;;;;;;16.41;75.63965;937.3865;;;;
2020/07/10 02:38:30;;;;;;;3.9;1.6;;;;;;;16.43;75.65625;937.4468;;;;
2020/07/10 02:41:39;;;;;;;7;2.7;;;;;;;16.58;75.44922;937.4583;;;;
2020/07/10 02:45:06;;;;;;;5;2.1;;;;;;;16.72;74.70801;937.5042;;;;
2020/07/10 02:48:17;;;;;;;8.1;2.6;;;;;;;16.79;74.41895;937.4727;;;;
2020/07/10 02:51:27;;;;;;;10.3;3.4;;;;;;;16.66;74.90723;937.4167;;;;
2020/07/10 02:54:36;;;;;;;8.8;3.6;;;;;;;16.65;75.96973;937.4094;;;;
2020/07/10 02:57:07;;;;;;;7.2;2.6;;;;;;;16.79;74.41895;937.3674;;;;
2020/07/10 02:59:39;;;;;;;8.5;2.4;;;;;;;16.73;74.4668;937.3714;;;;
2020/07/10 03:02:08;;;;;;;6.8;1.8;;;;;;;16.84;74.83398;937.3418;;;;
2020/07/10 03:04:40;;;;;;;8.9;2.4;;;;;;;16.88;74.0625;937.3661;;;;
2020/07/10 03:07:05;;;;;;;10.5;2.4;;;;;;;16.89;73.82227;937.3748;;;;
2020/07/10 03:09:31;;;;;;;6.9;1.8;;;;;;;16.78;74.16113;937.4044;;;;
2020/07/10 03:11:57;;;;;;;7.6;1.9;;;;;;;16.63;74.58691;937.2811;;;;
2020/07/10 03:14:30;;;;;;;3.4;1.5;;;;;;;16.52;75.0332;937.3466;;;;
2020/07/10 03:17:02;;;;;;;6;1.5;;;;;;;16.42;75.56055;937.4196;;;;
2020/07/10 03:19:35;;;;;;;5.9;1.8;;;;;;;16.3;75.88672;937.4082;;;;
2020/07/10 03:22:08;;;;;;;4.8;1.6;;;;;;;16.12;76.56152;937.4529;;;;
2020/07/10 03:24:33;;;;;;;3.1;1.3;;;;;;;16.21;76.29785;937.3594;;;;
2020/07/10 03:27:01;;;;;;;9.7;2.6;;;;;;;16.34;75.55762;937.3739;;;;
2020/07/10 03:29:33;;;;;;;7.4;2.8;;;;;;;16.4;75.09277;937.4133;;;;
2020/07/10 03:32:08;;;;;;;7.7;2.1;;;;;;;16.49;74.88965;937.4404;;;;
2020/07/10 03:34:41;;;;;;;9.3;3.5;;;;;;;16.45;74.80078;937.4836;;;;
2020/07/10 03:37:06;;;;;;;6.8;2.9;;;;;;;16.39;75.08105;937.4897;;;;
2020/07/10 03:39:34;;;;;;;5.1;2.6;;;;;;;16.41;75.21094;937.4509;;;;
2020/07/10 03:42:08;;;;;;;6.4;2.4;;;;;;;16.37;75.25195;937.4602;;;;
2020/07/10 03:44:35;;;;;;;5.5;1.9;;;;;;;16.39;75.22949;937.5541;;;;
2020/07/10 03:47:00;;;;;;;4.8;1.6;;;;;;;16.44;75.30859;937.5086;;;;
2020/07/10 03:49:25;;;;;;;8.7;2.3;;;;;;;16.57;75.35352;937.5284;;;;
2020/07/10 03:51:50;;;;;;;5.9;1.7;;;;;;;16.72;74.98633;937.5131;;;;
2020/07/10 03:54:17;;;;;;;6.4;1.9;;;;;;;16.7;74.33496;937.5109;;;;
2020/07/10 03:56:50;;;;;;;7.4;2.1;;;;;;;16.59;74.28125;937.5145;;;;
2020/07/10 03:59:15;;;;;;;8.4;1.9;;;;;;;16.41;75.18848;937.5281;;;;
2020/07/10 04:02:48;;;;;;;6.9;1.8;;;;;;;16.4;75.06934;937.484;;;;
2020/07/10 04:05:13;;;;;;;8.9;1.6;;;;;;;16.37;75.23828;937.4812;;;;
2020/07/10 04:07:42;;;;;;;5.1;1.4;;;;;;;16.3;75.13477;937.5167;;;;
2020/07/10 04:10:07;;;;;;;9.4;1.8;;;;;;;16.04;76.43164;937.5457;;;;
2020/07/10 04:12:34;;;;;;;8;2.1;;;;;;;16.13;76.40039;937.6135;;;;
2020/07/10 04:15:00;;;;;;;3.7;1.6;;;;;;;16.18;76.0752;937.6088;;;;
2020/07/10 04:17:33;;;;;;;10.3;1.9;;;;;;;16.27;75.66211;937.6086;;;;
2020/07/10 04:20:01;;;;;;;8.6;1.8;;;;;;;16.28;75.70898;937.6464;;;;
2020/07/10 04:22:33;;;;;;;8.8;2;;;;;;;16.21;75.75391;937.5972;;;;
2020/07/10 04:24:58;;;;;;;7.2;1.8;;;;;;;16.09;76.12695;937.6293;;;;
2020/07/10 04:27:29;;;;;;;11.1;2;;;;;;;15.89;77.22559;937.5986;;;;
2020/07/10 04:29:59;;;;;;;11.6;2.4;;;;;;;15.91;77.50586;937.5341;;;;
2020/07/10 04:32:27;;;;;;;9.2;2.3;;;;;;;15.85;77.39258;937.5059;;;;
2020/07/10 04:35:00;;;;;;;8.9;2.1;;;;;;;15.96;77.6084;937.5912;;;;
2020/07/10 04:37:30;;;;;;;17.3;3.1;;;;;;;16.18;76.6748;937.6161;;;;
2020/07/10 04:40:01;;;;;;;7.6;2.3;;;;;;;16.18;76.3291;937.563;;;;
2020/07/10 04:42:27;;;;;;;7.5;2.5;;;;;;;16.21;76.29785;937.5491;;;;
2020/07/10 04:44:55;;;;;;;11.8;2.2;;;;;;;16.37;75.65625;937.5856;;;;
2020/07/10 04:47:25;;;;;;;19.2;2.6;;;;;;;16.45;75.10156;937.4747;;;;
2020/07/10 04:49:54;;;;;;;7.5;2.1;;;;;;;16.49;74.84375;937.5441;;;;
2020/07/10 04:52:20;;;;;;;9.5;2.4;;;;;;;16.5;74.84375;937.5681;;;;
2020/07/10 04:54:53;;;;;;;10.1;2.3;;;;;;;16.57;74.7998;937.5726;;;;
2020/07/10 04:57:53;;;;;;;7.7;2.2;;;;;;;16.49;75.31836;937.5521;;;;
2020/07/10 04:59:53;;;;;;;6.5;2.2;;;;;;;16.63;74.80859;937.5078;;;;
2020/07/10 05:02:23;;;;;;;11;2.4;;;;;;;16.44;75.1582;937.4989;;;;
2020/07/10 05:04:53;;;;;;;10;2.9;;;;;;;16.28;75.04883;937.505;;;;
2020/07/10 05:07:18;;;;;;;17.3;3.9;;;;;;;16.4;75.69629;937.4807;;;;
2020/07/10 05:09:49;;;;;;;13.9;3.7;;;;;;;16.67;75.23145;937.3933;;;;
2020/07/10 05:12:14;;;;;;;13.2;3;;;;;;;17.6;72.73535;937.4774;;;;
2020/07/10 05:14:40;;;;;;;9.5;2.8;;;;;;;19.08;67.39063;937.4186;;;;
2020/07/10 05:17:13;;;;;;;9.2;2.2;;;;;;;20.21;61.86719;937.4077;;;;
2020/07/10 05:19:38;;;;;;;11.1;2.2;;;;;;;20.57;61.0293;937.3672;;;;
2020/07/10 05:22:11;;;;;;;10.4;2.1;;;;;;;21.89;56.88867;937.3582;;;;
2020/07/10 05:25:14;;;;;;;11.5;2.1;;;;;;;21.8;56.57227;937.3828;;;;
2020/07/10 05:27:45;;;;;;;5.6;1.6;;;;;;;21.47;57.99316;937.3505;;;;
2020/07/10 05:30:13;;;;;;;9.3;2;;;;;;;21.45;58.2832;937.3081;;;;
2020/07/10 05:33:22;;;;;;;12.1;2;;;;;;;22.86;54.42871;937.215;;;;
2020/07/10 05:35:58;;;;;;;7;1.8;;;;;;;22.53;55.78516;937.2512;;;;
2020/07/10 05:38:22;;;;;;;14.2;1.9;;;;;;;23.82;51.89941;937.1536;;;;
2020/07/10 05:40:48;;;;;;;8.5;1.8;;;;;;;23.82;52.03906;937.0936;;;;
2020/07/10 05:43:15;;;;;;;11.9;2;;;;;;;25.44;47.91797;937.0681;;;;
2020/07/10 05:45:40;;;;;;;7.9;1.6;;;;;;;26.41;45.33398;937.0572;;;;
2020/07/10 05:48:05;;;;;;;4.9;1.5;;;;;;;25.46;46.12402;937.0305;;;;
2020/07/10 05:50:57;;;;;;;7.4;1.8;;;;;;;25.17;46.82715;936.9609;;;;
2020/07/10 05:53:27;;;;;;;8.9;1.8;;;;;;;26.67;44.27148;936.8979;;;;
2020/07/10 05:55:57;;;;;;;7.1;1.6;;;;;;;27.84;42.20313;936.8786;;;;
2020/07/10 05:58:29;;;;;;;11.8;1.5;;;;;;;28.37;40.02832;936.897;;;;
2020/07/10 06:00:54;;;;;;;4.9;1.4;;;;;;;27.24;41.32715;936.8744;;;;
2020/07/10 06:03:19;;;;;;;7.1;1.4;;;;;;;27.58;41.71484;936.8967;;;;
2020/07/10 06:05:44;;;;;;;9.6;1.8;;;;;;;27.67;40.90332;936.8752;;;;
2020/07/10 06:08:49;;;;;;;5.2;1.6;;;;;;;27.18;40.94141;936.8075;;;;
2020/07/10 06:11:17;;;;;;;4;1.1;;;;;;;27.68;41.11816;936.8192;;;;
2020/07/10 06:13:43;;;;;;;9.3;1.6;;;;;;;28.19;38.52637;936.7917;;;;
2020/07/10 06:16:08;;;;;;;4.4;1.1;;;;;;;27.06;39.89941;936.7269;;;;
2020/07/10 06:18:33;;;;;;;5.7;1.3;;;;;;;25.97;41.57617;936.7786;;;;
2020/07/10 06:21:08;;;;;;;5;1.5;;;;;;;26.69;41.47754;936.691;;;;
2020/07/10 06:23:33;;;;;;;2.9;1.2;;;;;;;27.58;39.95703;936.68;;;;
2020/07/10 06:25:58;;;;;;;3.8;1.3;;;;;;;27.65;38.55176;936.6472;;;;
2020/07/10 06:28:24;;;;;;;3.8;1.1;;;;;;;27.34;41.62109;936.6211;;;;
2020/07/10 06:30:49;;;;;;;8.3;1.3;;;;;;;29;40.45313;936.6531;;;;
2020/07/10 06:33:14;;;;;;;2.8;1.2;;;;;;;30.3;34.80371;936.5919;;;;
2020/07/10 06:35:39;;;;;;;6.1;1.7;;;;;;;31.69;33.36523;936.5673;;;;
2020/07/10 06:39:25;;;;;;;5;1.5;;;;;;;33.16;32.45215;936.5338;;;;
2020/07/10 06:41:50;;;;;;;5;1.3;;;;;;;33.49;29.45801;936.548;;;;
2020/07/10 06:44:15;;;;;;;6.5;1.6;;;;;;;33.14;32.03027;936.5641;;;;
2020/07/10 06:46:40;;;;;;;4.4;1.3;;;;;;;34.03;29.13184;936.5659;;;;
2020/07/10 06:49:05;;;;;;;6.2;2;;;;;;;32.68;29.98145;936.5094;;;;
2020/07/10 06:51:30;;;;;;;6.2;2.3;;;;;;;30.56;33.97559;936.5323;;;;
2020/07/10 06:53:57;;;;;;;10.5;1.9;;;;;;;31.71;35.31934;936.4802;;;;
2020/07/10 06:56:22;;;;;;;5.2;1.6;;;;;;;31.23;32.29102;936.389;;;;
2020/07/10 06:58:47;;;;;;;3.2;1.4;;;;;;;31.28;36.21875;936.3859;;;;
2020/07/10 07:01:14;;;;;;;3.4;1.3;;;;;;;30.16;34.00391;936.3764;;;;
2020/07/10 07:03:39;;;;;;;3.8;1.2;;;;;;;28.98;36.2959;936.2989;;;;
2020/07/10 07:06:04;;;;;;;4;1.1;;;;;;;29.62;35.27539;936.2974;;;;
2020/07/10 07:08:29;;;;;;;6.3;1.4;;;;;;;29.95;34.94336;936.272;;;;
2020/07/10 07:11:09;;;;;;;6.3;1.4;;;;;;;31.43;33.14355;936.222;;;;
2020/07/10 07:13:38;;;;;;;5.3;1.2;;;;;;;30.92;34.92285;936.1973;;;;
2020/07/10 07:15:59;;;;;;;6.6;1.4;;;;;;;32.37;32.58789;936.2135;;;;
2020/07/10 07:18:26;;;;;;;4.8;1.1;;;;;;;32.02;31.50781;936.1462;;;;
2020/07/10 07:20:51;;;;;;;5.1;1.1;;;;;;;31.77;31.92188;936.1223;;;;
2020/07/10 07:23:17;;;;;;;3.9;1.2;;;;;;;31.85;31.28027;936.0834;;;;
2020/07/10 07:25:43;;;;;;;3.8;1.2;;;;;;;32.41;30.79102;936.0591;;;;
2020/07/10 07:28:55;;;;;;;3.3;1.1;;;;;;;32.79;29.91602;936.0547;;;;
2020/07/10 07:31:37;;;;;;;4.6;1.1;;;;;;;31.86;31.1377;936.0151;;;;
2020/07/10 07:34:02;;;;;;;3.7;1.2;;;;;;;31.25;31.94531;936.0103;;;;
2020/07/10 07:36:27;;;;;;;8.1;1.6;;;;;;;32.79;30.45703;936.0181;;;;
2020/07/10 07:38:52;;;;;;;4.3;1.2;;;;;;;32.41;28.28418;935.9825;;;;
2020/07/10 07:41:17;;;;;;;4.8;1.1;;;;;;;32.41;29.25586;935.9858;;;;
2020/07/10 07:43:42;;;;;;;6.3;1.3;;;;;;;32.92;29.50488;935.945;;;;
2020/07/10 07:46:08;;;;;;;4.6;1.1;;;;;;;32.54;28.76074;935.8987;;;;
2020/07/10 07:48:33;;;;;;;3.1;0.9;;;;;;;32.65;28.03516;935.8613;;;;
2020/07/10 07:50:58;;;;;;;1.9;0.9;;;;;;;32.49;29.15332;935.8589;;;;
2020/07/10 07:53:23;;;;;;;4;1.2;;;;;;;31.92;30.7334;935.7867;;;;
2020/07/10 07:55:48;;;;;;;3.3;0.9;;;;;;;33.02;28.74219;935.7314;;;;
2020/07/10 07:58:18;;;;;;;4.3;1.2;;;;;;;34.26;26.46094;935.7158;;;;
2020/07/10 08:00:41;;;;;;;4.4;1.1;;;;;;;33.6;27.75781;935.7068;;;;
2020/07/10 08:03:07;;;;;;;4.5;1.4;;;;;;;34.83;26.73438;935.6567;;;;
2020/07/10 08:05:31;;;;;;;7.2;1.5;;;;;;;35.69;26.85742;935.6944;;;;
2020/07/10 08:07:57;;;;;;;2.7;1.2;;;;;;;36.11;24.76563;935.6291;;;;
2020/07/10 08:10:22;;;;;;;2.7;1.1;;;;;;;36.59;25.19141;935.5995;;;;
2020/07/10 08:12:47;;;;;;;25.9;2.6;;;;;;;37.26;24.59766;935.5606;;;;
2020/07/10 08:15:13;;;;;;;11.4;1.6;;;;;;;38.36;22.63965;935.5359;;;;
2020/07/10 08:17:41;;;;;;;6.5;1.2;;;;;;;37.83;22.89258;935.5494;;;;
2020/07/10 08:20:04;;;;;;;5.4;1.3;;;;;;;37.46;23.38379;935.484;;;;
2020/07/10 08:22:29;;;;;;;5;1.2;;;;;;;36.96;24.29102;935.4241;;;;
2020/07/10 08:24:54;;;;;;;3.8;1.1;;;;;;;37.03;25.19141;935.3688;;;;
2020/07/10 08:27:22;;;;;;;4;1.1;;;;;;;37.79;25.81543;935.3446;;;;
2020/07/10 08:29:47;;;;;;;5.2;0.9;;;;;;;37.79;23.13281;935.3362;;;;
2020/07/10 08:32:13;;;;;;;3.5;0.9;;;;;;;37.28;22.98633;935.2718;;;;
2020/07/10 08:34:38;;;;;;;3.4;0.9;;;;;;;36.91;23.91309;935.2952;;;;
2020/07/10 08:37:03;;;;;;;2.1;0.8;;;;;;;37.79;23.60645;935.2194;;;;
2020/07/10 08:39:28;;;;;;;3;1.1;;;;;;;38.69;23.10547;935.2134;;;;
2020/07/10 08:41:53;;;;;;;1.8;0.8;;;;;;;37.15;23.02832;935.1721;;;;
2020/07/10 08:44:19;;;;;;;3.7;1.1;;;;;;;38.57;22.24805;935.2291;;;;
2020/07/10 08:46:44;;;;;;;3.4;1;;;;;;;38.73;22.98633;935.193;;;;
2020/07/10 08:49:09;;;;;;;5.4;1.1;;;;;;;39.75;21.92773;935.1278;;;;
2020/07/10 08:51:34;;;;;;;6.6;1;;;;;;;39.85;24.37109;935.0771;;;;
2020/07/10 08:53:59;;;;;;;3.6;0.9;;;;;;;37.73;22.18359;935.0516;;;;
2020/07/10 08:56:24;;;;;;;4.4;1.1;;;;;;;38.73;21.84277;935.0209;;;;
2020/07/10 08:58:49;;;;;;;3.8;1;;;;;;;37.36;21.4502;934.9916;;;;
2020/07/10 09:01:15;;;;;;;2.6;1;;;;;;;37.22;23.7832;934.9684;;;;
2020/07/10 09:03:40;;;;;;;2;1.1;;;;;;;38.07;22.81934;934.981;;;;
2020/07/10 09:06:05;;;;;;;2.6;1;;;;;;;38.57;24.61914;934.9711;;;;
2020/07/10 09:08:30;;;;;;;2.7;0.8;;;;;;;38.79;23.7793;934.9172;;;;
2020/07/10 09:10:55;;;;;;;3.3;1.1;;;;;;;39.39;24.41992;934.9695;;;;
2020/07/10 09:13:20;;;;;;;4.3;1;;;;;;;39.44;20.39063;934.9211;;;;
2020/07/10 09:15:47;;;;;;;3.6;0.8;;;;;;;38.83;27.26074;934.9217;;;;
2020/07/10 09:18:12;;;;;;;1.9;0.9;;;;;;;38.97;24.83496;934.8812;;;;
2020/07/10 09:20:38;;;;;;;3.1;0.9;;;;;;;39.41;25.00488;934.9;;;;
2020/07/10 09:23:04;;;;;;;2.6;1;;;;;;;39.35;24.64941;934.8739;;;;
2020/07/10 09:25:29;;;;;;;3.6;0.9;;;;;;;39.01;21.54004;934.904;;;;
2020/07/10 09:27:55;;;;;;;3.3;0.9;;;;;;;39.06;22.35742;934.8293;;;;
2020/07/10 09:30:20;;;;;;;4.1;0.8;;;;;;;38.66;20.76953;934.8204;;;;
2020/07/10 09:32:45;;;;;;;6.4;1.6;;;;;;;38.2;27.22266;934.7839;;;;
2020/07/10 09:35:10;;;;;;;7;1.3;;;;;;;37.72;27.29199;934.7905;;;;
2020/07/10 09:37:35;;;;;;;4;1.1;;;;;;;37.73;26.75879;934.8055;;;;
2020/07/10 09:40:00;;;;;;;3.7;1;;;;;;;37.76;23.55664;934.7431;;;;
2020/07/10 09:42:27;;;;;;;3.5;1.3;;;;;;;37.59;24.8457;934.6817;;;;
2020/07/10 09:44:52;;;;;;;10.8;2.5;;;;;;;38.02;24.26172;934.6905;;;;
2020/07/10 09:47:17;;;;;;;13.1;2.7;;;;;;;38.01;27.21191;934.6909;;;;
2020/07/10 09:49:42;;;;;;;2.9;0.9;;;;;;;37.97;21.51465;934.6425;;;;
2020/07/10 09:52:10;;;;;;;3;1;;;;;;;37.7;24.9248;934.6522;;;;
2020/07/10 09:54:34;;;;;;;5.2;1;;;;;;;37.22;24.4502;934.6117;;;;
2020/07/10 09:57:00;;;;;;;3.8;1;;;;;;;37.43;27.71191;934.5595;;;;
2020/07/10 09:59:25;;;;;;;5;1.2;;;;;;;37.17;28.0957;934.5731;;;;
2020/07/10 10:01:51;;;;;;;5.4;0.9;;;;;;;37.25;26.01563;934.4871;;;;
2020/07/10 10:04:16;;;;;;;5.7;1.4;;;;;;;37.12;30.83203;934.5789;;;;
2020/07/10 10:06:42;;;;;;;5.1;1.1;;;;;;;37.25;28.53711;934.5817;;;;
2020/07/10 10:09:23;;;;;;;4.7;1.2;;;;;;;37.35;30.93262;934.5834;;;;
2020/07/10 10:11:32;;;;;;;6.1;1;;;;;;;37.16;27.27051;934.5803;;;;
2020/07/10 10:13:58;;;;;;;3.7;1;;;;;;;36.8;27.89063;934.5289;;;;
2020/07/10 10:16:23;;;;;;;5.3;1;;;;;;;36.25;28.84961;934.546;;;;
2020/07/10 10:18:48;;;;;;;6.8;1.2;;;;;;;36.03;31.94336;934.5703;;;;
2020/07/10 10:21:13;;;;;;;5.8;0.9;;;;;;;35.86;29.63477;934.5101;;;;
2020/07/10 10:23:38;;;;;;;5.1;1;;;;;;;35.66;31.71191;934.5463;;;;
2020/07/10 10:26:03;;;;;;;5.2;1;;;;;;;35.54;29.69922;934.5547;;;;
2020/07/10 10:28:28;;;;;;;4;0.9;;;;;;;35.3;30.12988;934.5461;;;;
2020/07/10 10:30:53;;;;;;;4.4;0.9;;;;;;;35.28;30.78125;934.5217;;;;
2020/07/10 10:33:18;;;;;;;2.9;1.2;;;;;;;35.16;32.43848;934.4648;;;;
2020/07/10 10:35:44;;;;;;;3.9;0.9;;;;;;;35.19;32.80273;934.488;;;;
2020/07/10 10:38:09;;;;;;;3.2;1;;;;;;;35.21;30.12402;934.4568;;;;
2020/07/10 10:43:00;;;;;;;2.8;0.9;;;;;;;35.4;31.31934;934.4253;;;;
2020/07/10 10:45:25;;;;;;;2.3;0.9;;;;;;;35.36;34.17871;934.4299;;;;
2020/07/10 10:47:50;;;;;;;7.3;0.9;;;;;;;35.37;31.93359;934.4235;;;;
2020/07/10 10:50:15;;;;;;;4.7;1.1;;;;;;;35.22;32.32129;934.4316;;;;
2020/07/10 10:52:40;;;;;;;4.3;1.1;;;;;;;34.9;31.9502;934.4948;;;;
2020/07/10 10:55:05;;;;;;;6.3;1;;;;;;;34.68;31.31836;934.4456;;;;
2020/07/10 10:57:30;;;;;;;5.2;1.1;;;;;;;34.4;31.93848;934.4753;;;;
2020/07/10 10:59:55;;;;;;;4.1;1.1;;;;;;;34.06;32.61328;934.4777;;;;
2020/07/10 11:02:20;;;;;;;4.9;1;;;;;;;33.57;32.57715;934.3771;;;;
2020/07/10 11:04:46;;;;;;;2.2;1;;;;;;;33.28;34.57617;934.4416;;;;
2020/07/10 11:07:12;;;;;;;2.8;0.9;;;;;;;33.16;34.68652;934.4484;;;;
2020/07/10 11:09:38;;;;;;;5.5;1.1;;;;;;;33.14;32.82324;934.4222;;;;
2020/07/10 11:12:03;;;;;;;6.8;1.1;;;;;;;33.26;34.40527;934.4356;;;;
2020/07/10 11:14:29;;;;;;;5.2;1.1;;;;;;;33.32;34.71191;934.4231;;;;
2020/07/10 11:16:54;;;;;;;7.3;1;;;;;;;33.5;34.50879;934.4097;;;;
2020/07/10 11:19:20;;;;;;;6.7;1;;;;;;;33.2;33.34375;934.3448;;;;
2020/07/10 11:21:45;;;;;;;7.4;1.2;;;;;;;33.17;33.35449;934.3256;;;;
2020/07/10 11:24:10;;;;;;;6.2;1.1;;;;;;;33.15;33.36523;934.3514;;;;
2020/07/10 11:26:35;;;;;;;6.8;1.3;;;;;;;33.03;33.2832;934.2872;;;;
2020/07/10 11:29:00;;;;;;;6.7;1.1;;;;;;;33.1;33.91309;934.3392;;;;
2020/07/10 11:31:27;;;;;;;6.1;1;;;;;;;33.24;34.66895;934.2844;;;;
2020/07/10 11:33:52;;;;;;;5.3;1.3;;;;;;;33.18;36.43066;934.2805;;;;
2020/07/10 11:36:17;;;;;;;6.8;1.2;;;;;;;33.25;33.87695;934.2411;;;;
2020/07/10 11:38:42;;;;;;;4.6;1.2;;;;;;;33.45;34.85254;934.2428;;;;
2020/07/10 11:41:07;;;;;;;6.8;1.1;;;;;;;33.42;35.31934;934.2893;;;;
2020/07/10 11:43:32;;;;;;;5.1;1.1;;;;;;;33.58;35.2959;934.2881;;;;
2020/07/10 11:45:57;;;;;;;2.7;1;;;;;;;33.5;33.94336;934.2963;;;;
2020/07/10 11:48:24;;;;;;;11.1;1.2;;;;;;;33.42;34.08203;934.2195;;;;
2020/07/10 11:50:48;;;;;;;4.7;1.1;;;;;;;33.6;33.58984;934.2103;;;;
2020/07/10 11:53:14;;;;;;;3.8;1.3;;;;;;;33.71;34.37988;934.2075;;;;
2020/07/10 11:55:39;;;;;;;7.7;1.1;;;;;;;33.7;32.81543;934.2386;;;;
2020/07/10 11:58:04;;;;;;;2.4;1.1;;;;;;;33.43;33.39746;934.2059;;;;
2020/07/10 12:00:30;;;;;;;4.4;1.2;;;;;;;33.08;34.74121;934.1749;;;;
2020/07/10 12:02:55;;;;;;;4.2;1.2;;;;;;;33.34;35.02539;934.1753;;;;
2020/07/10 12:05:21;;;;;;;5.5;1.4;;;;;;;33.28;34.86426;934.1896;;;;
2020/07/10 12:07:46;;;;;;;4.3;1.3;;;;;;;32.85;34.4707;934.2241;;;;
2020/07/10 12:10:11;;;;;;;3.8;1.4;;;;;;;32.51;34.30176;934.2352;;;;
2020/07/10 12:12:43;;;;;;;6.2;1.5;;;;;;;32.4;37.68848;934.2525;;;;
2020/07/10 12:15:08;;;;;;;9.4;1.7;;;;;;;32.28;35.7832;934.3167;;;;
2020/07/10 12:17:33;;;;;;;6.9;1.5;;;;;;;32.11;35.44531;934.2601;;;;
2020/07/10 12:19:59;;;;;;;10.5;1.5;;;;;;;31.75;36.25684;934.1959;;;;
2020/07/10 12:22:24;;;;;;;4;1.8;;;;;;;31.36;37.55371;934.2153;;;;
2020/07/10 12:24:49;;;;;;;7.7;1.7;;;;;;;31.25;37.6748;934.1955;;;;
2020/07/10 12:27:14;;;;;;;3.5;1.3;;;;;;;31.16;36.05371;934.1769;;;;
2020/07/10 12:29:39;;;;;;;7;1.7;;;;;;;30.99;38.45508;934.2048;;;;
2020/07/10 12:32:04;;;;;;;4.3;1.7;;;;;;;31.24;39.50586;934.1975;;;;
2020/07/10 12:34:30;;;;;;;6.7;1.7;;;;;;;31.61;38.84375;934.2119;;;;
2020/07/10 12:36:56;;;;;;;5.5;1.8;;;;;;;31.83;37.35254;934.2435;;;;
2020/07/10 12:39:21;;;;;;;5.5;1.9;;;;;;;31.74;37.35742;934.1588;;;;
2020/07/10 12:41:47;;;;;;;4.4;1.9;;;;;;;32.02;39.64648;934.1674;;;;
2020/07/10 12:44:12;;;;;;;6.3;2;;;;;;;32.16;40.10156;934.226;;;;
2020/07/10 12:46:37;;;;;;;5.8;1.8;;;;;;;32.21;38.17578;934.1667;;;;
2020/07/10 12:49:03;;;;;;;6.7;1.8;;;;;;;32.22;36.76172;934.1588;;;;
2020/07/10 12:51:28;;;;;;;5;1.8;;;;;;;32.25;36.2959;934.1351;;;;
2020/07/10 12:53:53;;;;;;;6;2;;;;;;;32.35;36.47266;934.1499;;;;
2020/07/10 12:56:18;;;;;;;5.2;2;;;;;;;32.38;36.13965;934.1674;;;;
2020/07/10 12:58:44;;;;;;;7.8;1.9;;;;;;;32.4;36.76465;934.1651;;;;
2020/07/10 13:01:23;;;;;;;4.2;2.1;;;;;;;32.45;37.11621;934.1672;;;;
2020/07/10 13:03:35;;;;;;;9.1;2.2;;;;;;;32.4;35.98438;934.1848;;;;
2020/07/10 13:06:00;;;;;;;6;2.1;;;;;;;32.36;35.96875;934.1833;;;;
2020/07/10 13:08:25;;;;;;;5.8;2;;;;;;;32.21;35.50195;934.1091;;;;
2020/07/10 13:10:59;;;;;;;7.3;2.2;;;;;;;32.31;35.97656;934.1599;;;;
2020/07/10 13:13:17;;;;;;;7.7;2.1;;;;;;;31.95;36.12793;934.0812;;;;
2020/07/10 13:15:40;;;;;;;4.6;1.9;;;;;;;31.56;36.70801;934.1072;;;;
2020/07/10 13:18:05;;;;;;;6.2;2;;;;;;;31.26;37.29492;934.0535;;;;
2020/07/10 13:20:30;;;;;;;6.9;1.9;;;;;;;31.24;39.68555;934.1142;;;;
2020/07/10 13:22:55;;;;;;;4.5;1.8;;;;;;;31.42;38.69531;934.0887;;;;
2020/07/10 13:25:23;;;;;;;4;2.2;;;;;;;31.37;38.08105;934.0039;;;;
2020/07/10 13:27:55;;;;;;;7.3;2;;;;;;;31.46;37.22656;934.0737;;;;
2020/07/10 13:30:12;;;;;;;5.4;1.9;;;;;;;31.26;37.67773;934.0034;;;;
2020/07/10 13:32:37;;;;;;;7.4;2.3;;;;;;;31.59;40.2793;934.059;;;;
2020/07/10 13:35:02;;;;;;;5.5;1.9;;;;;;;31.67;37.81934;934.0566;;;;
2020/07/10 13:37:27;;;;;;;4.2;1.7;;;;;;;31.71;37.8584;934.0433;;;;
2020/07/10 13:39:53;;;;;;;7.1;1.7;;;;;;;31.94;37.87793;934.024;;;;
2020/07/10 13:42:18;;;;;;;5.4;1.7;;;;;;;32.04;36.91406;933.966;;;;
2020/07/10 13:44:43;;;;;;;6.3;1.7;;;;;;;31.87;37.53613;934.0676;;;;
2020/07/10 13:47:09;;;;;;;5.8;1.8;;;;;;;31.82;37.1123;934.079;;;;
2020/07/10 13:51:59;;;;;;;6.3;1.6;;;;;;;31.16;38.91309;934.0992;;;;
2020/07/10 13:54:23;;;;;;;9.3;2;;;;;;;30.78;38.30664;934.0082;;;;
2020/07/10 13:56:49;;;;;;;13.8;1.8;;;;;;;30.57;39.35156;933.9977;;;;
2020/07/10 13:59:14;;;;;;;11.5;2.1;;;;;;;30.38;39.13184;933.9439;;;;
2020/07/10 14:01:39;;;;;;;9.6;1.6;;;;;;;30.24;40.94727;933.9981;;;;
2020/07/10 14:04:04;;;;;;;9.1;2;;;;;;;30.14;40.56836;933.8929;;;;
2020/07/10 14:06:29;;;;;;;5.2;1.5;;;;;;;30.24;42.47461;933.8746;;;;
2020/07/10 14:08:55;;;;;;;6.1;1.8;;;;;;;30.34;41.09863;933.7932;;;;
2020/07/10 14:11:20;;;;;;;4.8;1.5;;;;;;;30.53;40.07715;933.8337;;;;
2020/07/10 14:13:46;;;;;;;3.8;1.4;;;;;;;30.55;40.86719;933.7723;;;;
2020/07/10 14:16:12;;;;;;;4.8;1.6;;;;;;;30.44;41.62207;933.8203;;;;
2020/07/10 14:18:37;;;;;;;4.6;1.3;;;;;;;30.4;40.90137;933.799;;;;
2020/07/10 14:21:02;;;;;;;6.7;1.6;;;;;;;30.42;42.16895;933.8198;;;;
2020/07/10 14:23:27;;;;;;;9;1.5;;;;;;;30.23;40.62305;933.8445;;;;
2020/07/10 14:25:53;;;;;;;5.5;1.9;;;;;;;30.07;42.70996;933.7575;;;;
2020/07/10 14:28:19;;;;;;;8.3;1.7;;;;;;;29.88;43.00098;933.7301;;;;
2020/07/10 14:30:44;;;;;;;3.7;1.7;;;;;;;29.8;42.8623;933.6389;;;;
2020/07/10 14:33:11;;;;;;;4.9;1.4;;;;;;;29.53;44.25586;933.6314;;;;
2020/07/10 14:35:36;;;;;;;5.4;1.5;;;;;;;29.35;44.57129;933.5706;;;;
2020/07/10 14:38:01;;;;;;;7.5;1.8;;;;;;;29.05;44.45898;933.5839;;;;
2020/07/10 14:40:26;;;;;;;5.2;1.9;;;;;;;28.99;46.50098;933.6764;;;;